Time;durP1;ratioP1;P1;durP2;ratioP2;P2;SDS_P1;SDS_P2;PMS_P1;PMS_P2;Temp;Humidity;BMP_temperature;BMP_pressure;BME280_temperature;BME280_humidity;BME280_pressure;Samples;Min_cycle;Max_cycle;Signal;HPM_P1;HPM_P2
2022/02/04 00:23:00;;;;;;;14.88;3.17;;;;;;;;;;5046077;28;20089;-68
2022/02/04 00:25:47;;;;;;;8.90;2.78;;;;;;;;;;5028111;28;20040;-68
2022/02/04 00:28:31;;;;;;;4.30;1.63;;;;;;;;;;5061532;28;20052;-68
2022/02/04 00:31:14;;;;;;;11.90;3.28;;;;;;;;;;5028053;28;20033;-68
2022/02/04 00:33:42;;;;;;;7.25;3.28;;;;;;;;;;5046157;28;20061;-69
2022/02/04 00:36:14;;;;;;;8.80;2.63;;;;;;;;;;5045361;28;20056;-68
2022/02/04 00:38:44;;;;;;;10.05;2.63;;;;;;;;;;5045733;28;20033;-68
2022/02/04 00:41:12;;;;;;;7.82;3.15;;;;;;;;;;5027798;28;20029;-67
2022/02/04 00:43:39;;;;;;;13.80;4.07;;;;;;;;;;5046023;28;20025;-68
2022/02/04 00:46:26;;;;;;;8.25;3.50;;;;;;;;;;5045589;28;20499;-68
2022/02/04 01:26:32;;;;;;;6.90;3.42;;;;;;;;;;5044952;28;20068;-68
2022/02/04 01:28:58;;;;;;;7.50;3.65;;;;;;;;;;5045158;28;20037;-68
2022/02/04 01:31:26;;;;;;;10.38;4.30;;;;;;;;;;5044906;28;20057;-68
2022/02/04 01:33:54;;;;;;;10.45;4.38;;;;;;;;;;5044854;28;20113;-68
2022/02/04 01:36:19;;;;;;;14.15;4.95;;;;;;;;;;5026405;28;20563;-68
2022/02/04 01:38:45;;;;;;;14.25;5.85;;;;;;;;;;5060275;28;20033;-68
2022/02/04 01:41:12;;;;;;;13.32;4.85;;;;;;;;;;5044632;28;20030;-68
2022/02/04 01:43:39;;;;;;;11.80;5.57;;;;;;;;;;5026837;28;20053;-68
2022/02/04 01:46:06;;;;;;;11.60;5.00;;;;;;;;;;5044249;28;20513;-70
2022/02/04 01:48:33;;;;;;;13.65;5.47;;;;;;;;;;5027012;28;20033;-68
2022/02/04 01:51:00;;;;;;;13.43;6.35;;;;;;;;;;5044683;28;20037;-68
2022/02/04 01:53:29;;;;;;;14.02;5.40;;;;;;;;;;5044571;28;20401;-69
2022/02/04 01:56:03;;;;;;;12.25;5.88;;;;;;;;;;5044448;28;20088;-68
2022/02/04 01:58:29;;;;;;;13.18;5.07;;;;;;;;;;5026621;28;20033;-67
2022/02/04 02:00:56;;;;;;;11.20;5.15;;;;;;;;;;5026639;28;20087;-67
2022/02/04 02:03:22;;;;;;;11.75;5.85;;;;;;;;;;5044349;28;20033;-68
2022/02/04 02:05:50;;;;;;;18.30;6.38;;;;;;;;;;5044047;28;20429;-68
2022/02/04 02:08:18;;;;;;;13.02;6.18;;;;;;;;;;5044185;28;20422;-68
2022/02/04 02:10:45;;;;;;;18.55;6.93;;;;;;;;;;5026152;28;20033;-68
2022/02/04 02:48:15;;;;;;;19.33;9.15;;;;;;;;;;5043858;28;20132;-68
2022/02/04 02:58:23;;;;;;;19.08;9.57;;;;;;;;;;5043374;28;20049;-68
2022/02/04 03:01:22;;;;;;;19.88;7.65;;;;;;;;;;5043062;28;20053;-68
2022/02/04 03:03:43;;;;;;;20.83;8.48;;;;;;;;;;5040058;28;20045;-68
2022/02/04 03:06:09;;;;;;;21.02;9.05;;;;;;;;;;5043312;28;20382;-68
2022/02/04 03:08:34;;;;;;;19.35;8.07;;;;;;;;;;5042269;28;20073;-68
2022/02/04 03:10:59;;;;;;;18.85;7.82;;;;;;;;;;5042315;28;20129;-69
2022/02/04 03:13:26;;;;;;;18.33;9.25;;;;;;;;;;5042551;28;20044;-68
2022/02/04 03:16:12;;;;;;;21.98;8.75;;;;;;;;;;5043096;28;20033;-68
2022/02/04 03:18:41;;;;;;;17.80;8.63;;;;;;;;;;5043359;28;20120;-68
2022/02/04 03:21:13;;;;;;;22.63;9.80;;;;;;;;;;5025427;28;20093;-68
2022/02/04 03:23:41;;;;;;;21.25;9.30;;;;;;;;;;5043263;28;20052;-68
2022/02/04 03:26:17;;;;;;;22.05;9.98;;;;;;;;;;5043157;28;20033;-68
2022/02/04 03:28:44;;;;;;;25.92;9.80;;;;;;;;;;5046387;28;20509;-68
2022/02/04 03:31:10;;;;;;;16.17;6.97;;;;;;;;;;5047191;28;20030;-68
2022/02/04 03:33:36;;;;;;;17.15;8.30;;;;;;;;;;5047383;28;20088;-68
2022/02/04 03:36:02;;;;;;;18.42;7.90;;;;;;;;;;5046556;28;20493;-69
2022/02/04 03:38:27;;;;;;;21.23;8.73;;;;;;;;;;5047175;28;20116;-68
2022/02/04 03:40:55;;;;;;;17.52;8.60;;;;;;;;;;5047025;28;20029;-68
2022/02/04 03:43:20;;;;;;;19.20;8.68;;;;;;;;;;5046826;28;20386;-68
2022/02/04 03:45:46;;;;;;;22.02;8.10;;;;;;;;;;5029056;28;20101;-68
2022/02/04 03:48:11;;;;;;;17.55;7.32;;;;;;;;;;5029247;28;20034;-68
2022/02/04 03:50:37;;;;;;;18.52;7.65;;;;;;;;;;5047055;28;20104;-69
2022/02/04 03:53:03;;;;;;;19.27;8.95;;;;;;;;;;5046797;28;20033;-68
2022/02/04 03:55:29;;;;;;;16.85;7.88;;;;;;;;;;5046807;28;20033;-69
2022/02/04 03:57:54;;;;;;;23.67;8.00;;;;;;;;;;5046471;28;20168;-68
2022/02/04 04:00:20;;;;;;;26.10;7.80;;;;;;;;;;5046827;28;20029;-68
2022/02/04 04:02:47;;;;;;;15.32;6.60;;;;;;;;;;5028961;28;20032;-68
2022/02/04 04:05:13;;;;;;;23.63;7.40;;;;;;;;;;5028680;28;20034;-68
2022/02/04 04:07:48;;;;;;;25.40;7.53;;;;;;;;;;5028952;28;20362;-68
2022/02/04 04:10:20;;;;;;;18.80;8.07;;;;;;;;;;5028758;28;20053;-68
2022/02/04 04:12:49;;;;;;;24.90;7.95;;;;;;;;;;5046713;28;20432;-69
2022/02/04 04:15:17;;;;;;;31.33;9.02;;;;;;;;;;5046176;28;20029;-67
2022/02/04 04:17:44;;;;;;;25.92;7.70;;;;;;;;;;5046183;28;20029;-68
2022/02/04 04:20:20;;;;;;;17.85;6.93;;;;;;;;;;5028445;28;20026;-69
2022/02/04 04:22:46;;;;;;;16.98;7.43;;;;;;;;;;5028386;28;20029;-68
2022/02/04 04:25:13;;;;;;;19.02;6.97;;;;;;;;;;5046303;28;20033;-68
2022/02/04 04:27:42;;;;;;;17.35;6.15;;;;;;;;;;5046346;28;20034;-69
2022/02/04 04:30:13;;;;;;;18.23;6.95;;;;;;;;;;5045949;28;20049;-68
2022/02/04 04:32:39;;;;;;;14.65;6.63;;;;;;;;;;5046272;28;20037;-68
2022/02/04 04:35:06;;;;;;;20.38;7.00;;;;;;;;;;5045602;28;20049;-68
2022/02/04 04:37:32;;;;;;;25.70;7.15;;;;;;;;;;5046047;28;20030;-67
2022/02/04 04:43:06;;;;;;;17.45;6.95;;;;;;;;;;5046350;28;20362;-68
2022/02/04 04:45:57;;;;;;;15.25;6.95;;;;;;;;;;5045055;28;20052;-68
2022/02/04 05:29:18;;;;;;;11.73;4.20;;;;;;;;;;5045649;28;19913;-69
2022/02/04 05:31:44;;;;;;;15.40;5.55;;;;;;;;;;5045116;28;20044;-69
2022/02/04 05:34:11;;;;;;;9.75;5.15;;;;;;;;;;5045448;28;20181;-68
2022/02/04 05:36:42;;;;;;;11.07;4.75;;;;;;;;;;5044709;28;20060;-68
2022/02/04 05:39:10;;;;;;;10.80;5.10;;;;;;;;;;5045102;28;20033;-68
2022/02/04 05:41:40;;;;;;;11.38;5.10;;;;;;;;;;5045102;28;20045;-68
2022/02/04 05:44:09;;;;;;;12.55;5.68;;;;;;;;;;5044730;28;20533;-68
2022/02/04 05:46:47;;;;;;;11.38;4.38;;;;;;;;;;5044611;28;20033;-68
2022/02/04 05:49:14;;;;;;;9.32;4.50;;;;;;;;;;5044765;28;20025;-68
2022/02/04 05:51:51;;;;;;;9.27;4.28;;;;;;;;;;5026020;28;20116;-68
2022/02/04 05:57:15;;;;;;;12.15;5.18;;;;;;;;;;5044321;28;20045;-68
2022/02/04 06:02:43;;;;;;;9.68;3.97;;;;;;;;;;5044524;28;20033;-68
2022/02/04 06:05:40;;;;;;;10.38;3.72;;;;;;;;;;5059577;28;20040;-69
2022/02/04 06:23:42;;;;;;;;;;;;;;;;;;5044491;28;20045;-69
2022/02/04 06:26:11;;;;;;;5.80;3.20;;;;;;;;;;5044067;28;19917;-68
2022/02/04 06:28:38;;;;;;;6.25;3.50;;;;;;;;;;5026206;28;20120;-69
2022/02/04 06:31:04;;;;;;;6.00;3.47;;;;;;;;;;5026121;28;20125;-68
2022/02/04 06:33:29;;;;;;;8.13;3.63;;;;;;;;;;5043797;28;20025;-69
2022/02/04 06:35:55;;;;;;;7.22;3.92;;;;;;;;;;5025677;28;20041;-68
2022/02/04 06:38:21;;;;;;;9.25;3.63;;;;;;;;;;5043828;28;20053;-69
2022/02/04 06:40:49;;;;;;;7.28;3.70;;;;;;;;;;5043767;28;20041;-69
2022/02/04 06:43:16;;;;;;;7.68;3.85;;;;;;;;;;5043549;28;20042;-69
2022/02/04 06:45:41;;;;;;;8.50;4.00;;;;;;;;;;5058911;28;20039;-68
2022/02/04 06:48:07;;;;;;;8.23;3.55;;;;;;;;;;5025997;28;20040;-69
2022/02/04 06:50:33;;;;;;;7.82;3.60;;;;;;;;;;5043688;28;20025;-68
2022/02/04 06:52:58;;;;;;;6.20;3.70;;;;;;;;;;5025795;28;20111;-68
2022/02/04 06:55:26;;;;;;;5.63;3.20;;;;;;;;;;5043358;28;20045;-68
2022/02/04 06:57:53;;;;;;;7.97;4.20;;;;;;;;;;5043506;28;20033;-69
2022/02/04 07:00:21;;;;;;;5.43;3.35;;;;;;;;;;5025612;28;20033;-68
2022/02/04 07:02:47;;;;;;;7.88;3.97;;;;;;;;;;5025361;28;20469;-68
2022/02/04 07:05:14;;;;;;;7.65;3.88;;;;;;;;;;5043312;28;20156;-68
2022/02/04 07:07:44;;;;;;;8.52;3.90;;;;;;;;;;5043601;28;20099;-69
2022/02/04 07:10:20;;;;;;;10.40;4.05;;;;;;;;;;5043468;28;20047;-68
2022/02/04 07:12:58;;;;;;;14.38;4.35;;;;;;;;;;5043131;28;20033;-69
2022/02/04 07:16:22;;;;;;;8.90;4.30;;;;;;;;;;5043135;28;20030;-69
2022/02/04 07:20:52;;;;;;;9.07;3.95;;;;;;;;;;5043476;28;20443;-68
2022/02/04 07:23:20;;;;;;;11.57;3.65;;;;;;;;;;5043382;28;20044;-69
2022/02/04 07:25:45;;;;;;;13.40;4.20;;;;;;;;;;5025328;28;20037;-68
2022/02/04 07:28:13;;;;;;;13.27;3.92;;;;;;;;;;5042885;28;20476;-69
2022/02/04 07:30:39;;;;;;;15.82;3.85;;;;;;;;;;5058131;28;20057;-69
2022/02/04 07:33:15;;;;;;;9.88;3.60;;;;;;;;;;5043374;28;20025;-69
2022/02/04 07:41:05;;;;;;;15.63;3.70;;;;;;;;;;5043106;28;20048;-69
2022/02/04 07:43:31;;;;;;;11.52;3.92;;;;;;;;;;5042779;28;20547;-69
2022/02/04 07:45:57;;;;;;;13.02;3.53;;;;;;;;;;5043068;28;20066;-69
2022/02/04 07:48:24;;;;;;;16.17;3.97;;;;;;;;;;5043012;28;20083;-68
2022/02/04 07:50:52;;;;;;;22.67;4.65;;;;;;;;;;5043013;28;20096;-69
2022/02/04 07:53:19;;;;;;;22.52;3.67;;;;;;;;;;5058402;28;20037;-69
2022/02/04 07:55:46;;;;;;;16.75;4.10;;;;;;;;;;5042669;28;20029;-69
2022/02/04 07:58:13;;;;;;;17.63;4.07;;;;;;;;;;5043104;28;20030;-69
2022/02/04 08:00:39;;;;;;;37.50;4.85;;;;;;;;;;5025011;28;20033;-68
2022/02/04 08:03:29;;;;;;;36.65;4.55;;;;;;;;;;5025123;28;20029;-69
2022/02/04 08:05:54;;;;;;;39.85;5.40;;;;;;;;;;5041695;28;20495;-68
2022/02/04 08:08:28;;;;;;;51.60;5.22;;;;;;;;;;5042984;28;20150;-68
2022/02/04 08:32:06;;;;;;;34.38;5.60;;;;;;;;;;5044715;28;20067;-68
2022/02/04 08:55:52;;;;;;;59.20;5.20;;;;;;;;;;5043345;28;20029;-69
2022/02/04 09:00:59;;;;;;;57.80;6.63;;;;;;;;;;5043445;28;20040;-68
2022/02/04 09:03:36;;;;;;;50.50;6.15;;;;;;;;;;5058558;28;20037;-69
2022/02/04 09:06:27;;;;;;;60.38;5.90;;;;;;;;;;5042950;28;20029;-69
2022/02/04 09:08:58;;;;;;;35.50;6.50;;;;;;;;;;5042695;28;20045;-68
2022/02/04 09:17:02;;;;;;;33.47;4.90;;;;;;;;;;5043273;28;20075;-69
2022/02/04 09:19:40;;;;;;;37.83;6.40;;;;;;;;;;5043852;28;20041;-69
2022/02/04 09:22:20;;;;;;;28.27;6.40;;;;;;;;;;5026010;28;20037;-68
2022/02/04 09:24:50;;;;;;;43.63;5.65;;;;;;;;;;5043808;28;20132;-68
2022/02/04 09:27:16;;;;;;;40.72;5.70;;;;;;;;;;5044699;28;20029;-69
2022/02/04 09:29:41;;;;;;;52.63;5.80;;;;;;;;;;5026342;28;20039;-69
2022/02/04 09:32:07;;;;;;;34.65;4.93;;;;;;;;;;5042857;28;20043;-67
2022/02/04 09:34:33;;;;;;;50.88;6.15;;;;;;;;;;5042783;28;20033;-69
2022/02/04 09:36:58;;;;;;;45.55;6.38;;;;;;;;;;5025657;28;20084;-68
2022/02/04 09:39:26;;;;;;;31.67;5.93;;;;;;;;;;5044927;28;20029;-68
2022/02/04 09:41:52;;;;;;;35.55;7.63;;;;;;;;;;5044997;28;20025;-68
2022/02/04 09:44:17;;;;;;;54.20;8.88;;;;;;;;;;5025524;28;20039;-69
2022/02/04 09:46:43;;;;;;;50.92;9.05;;;;;;;;;;5024402;28;20033;-69
2022/02/04 09:49:19;;;;;;;37.67;7.63;;;;;;;;;;5042264;28;20069;-69
2022/02/04 10:19:23;;;;;;;35.65;6.88;;;;;;;;;;5043579;28;20032;-68
2022/02/04 10:22:02;;;;;;;24.88;5.88;;;;;;;;;;5026068;28;20029;-69
2022/02/04 10:24:30;;;;;;;28.52;6.03;;;;;;;;;;5025980;28;20025;-68
2022/02/04 10:27:21;;;;;;;26.85;6.50;;;;;;;;;;5043693;28;20087;-70
2022/02/04 10:29:52;;;;;;;28.50;6.10;;;;;;;;;;5043983;28;20087;-69
2022/02/04 10:32:23;;;;;;;28.17;5.68;;;;;;;;;;5026270;28;20342;-70
2022/02/04 10:35:12;;;;;;;26.48;6.57;;;;;;;;;;5043600;28;20034;-69
2022/02/04 10:37:42;;;;;;;19.63;6.57;;;;;;;;;;5043716;28;20021;-69
2022/02/04 10:40:37;;;;;;;26.67;6.00;;;;;;;;;;5025858;28;20029;-70
2022/02/04 10:43:24;;;;;;;23.90;6.03;;;;;;;;;;5026166;28;20473;-69
2022/02/04 10:46:11;;;;;;;25.85;6.47;;;;;;;;;;5025878;28;20036;-69
2022/02/04 10:49:00;;;;;;;28.85;5.97;;;;;;;;;;5044023;28;20029;-68
2022/02/04 11:00:07;;;;;;;20.92;4.88;;;;;;;;;;5014791;28;20112;-70
2022/02/04 11:05:11;;;;;;;16.42;4.22;;;;;;;;;;5043522;28;20030;-68
2022/02/04 11:35:00;;;;;;;20.60;5.53;;;;;;;;;;5042923;28;20094;-68
2022/02/04 11:43:59;;;;;;;25.50;7.78;;;;;;;;;;5043192;28;20036;-69
2022/02/04 11:54:56;;;;;;;14.18;5.15;;;;;;;;;;5046547;28;20033;-69
2022/02/04 11:57:23;;;;;;;19.90;6.28;;;;;;;;;;5046622;28;20033;-70
2022/02/04 11:59:52;;;;;;;21.88;7.30;;;;;;;;;;5046844;28;20036;-70
2022/02/04 12:02:30;;;;;;;20.70;7.03;;;;;;;;;;5028529;28;20052;-69
2022/02/04 12:05:07;;;;;;;20.42;7.43;;;;;;;;;;5046339;28;20488;-69
2022/02/04 12:07:38;;;;;;;18.75;6.93;;;;;;;;;;5046526;28;20166;-69
2022/02/04 12:10:18;;;;;;;9.18;3.45;;;;;;;;;;5046623;28;20028;-69
2022/02/04 12:12:53;;;;;;;10.05;3.75;;;;;;;;;;5046158;28;20033;-69
2022/02/04 12:15:36;;;;;;;14.32;6.30;;;;;;;;;;5046145;28;20079;-69
2022/02/04 12:18:05;;;;;;;13.57;5.63;;;;;;;;;;5046114;28;20025;-70
2022/02/04 12:23:31;;;;;;;13.05;5.07;;;;;;;;;;5046084;28;20038;-69
2022/02/04 12:26:04;;;;;;;18.65;6.75;;;;;;;;;;5046389;28;20025;-70
2022/02/04 12:29:09;;;;;;;15.50;6.32;;;;;;;;;;5046779;28;20086;-69
2022/02/04 12:31:36;;;;;;;16.65;6.78;;;;;;;;;;5045868;28;20025;-70
2022/02/04 12:34:05;;;;;;;17.65;7.47;;;;;;;;;;5044932;28;20575;-69
2022/02/04 12:36:37;;;;;;;12.55;5.13;;;;;;;;;;5045372;28;20049;-70
2022/02/04 12:39:16;;;;;;;13.95;5.95;;;;;;;;;;5045972;28;20064;-69
2022/02/04 12:41:45;;;;;;;16.63;5.47;;;;;;;;;;5045855;28;20030;-70
2022/02/04 12:44:14;;;;;;;21.40;7.93;;;;;;;;;;5046121;28;20334;-69
2022/02/04 12:46:45;;;;;;;13.95;5.93;;;;;;;;;;5045836;28;20065;-69
2022/02/04 12:49:16;;;;;;;13.63;5.93;;;;;;;;;;5045884;28;20460;-69
2022/02/04 12:54:39;;;;;;;13.95;5.55;;;;;;;;;;5045579;28;20315;-68
2022/02/04 13:03:01;;;;;;;21.95;6.82;;;;;;;;;;5045883;28;20046;-69
2022/02/04 13:08:21;;;;;;;25.48;6.75;;;;;;;;;;5045414;28;20044;-69
2022/02/04 13:11:07;;;;;;;17.42;6.45;;;;;;;;;;5045190;28;20501;-68
2022/02/04 13:13:47;;;;;;;33.90;8.70;;;;;;;;;;5045549;28;20148;-69
2022/02/04 13:16:23;;;;;;;20.15;5.72;;;;;;;;;;5027157;28;20037;-69
2022/02/04 13:18:49;;;;;;;26.40;6.68;;;;;;;;;;5045207;28;20030;-69
2022/02/04 13:21:15;;;;;;;20.58;5.72;;;;;;;;;;5045493;28;20089;-69
2022/02/04 13:23:41;;;;;;;21.45;5.93;;;;;;;;;;5045135;28;20034;-69
2022/02/04 13:26:07;;;;;;;19.75;5.90;;;;;;;;;;5027276;28;20093;-69
2022/02/04 13:28:40;;;;;;;23.05;5.60;;;;;;;;;;5045220;28;20030;-68
2022/02/04 13:31:08;;;;;;;15.95;4.82;;;;;;;;;;5045138;28;20030;-69
2022/02/04 13:33:41;;;;;;;21.42;4.97;;;;;;;;;;5045398;28;20040;-69
2022/02/04 13:41:40;;;;;;;24.77;6.55;;;;;;;;;;5045074;28;20048;-70
2022/02/04 13:52:56;;;;;;;23.13;6.15;;;;;;;;;;5041873;28;20116;-69
2022/02/04 13:55:43;;;;;;;24.23;7.22;;;;;;;;;;5026835;28;20025;-69
2022/02/04 14:03:47;;;;;;;27.42;7.95;;;;;;;;;;5044783;28;20056;-69
2022/02/04 14:06:22;;;;;;;27.05;7.80;;;;;;;;;;5044371;28;20116;-69
2022/02/04 14:08:56;;;;;;;11.93;7.13;;;;;;;;;;5044348;28;20080;-69
2022/02/04 14:11:35;;;;;;;27.92;6.95;;;;;;;;;;5043618;28;20037;-69
2022/02/04 14:14:04;;;;;;;29.77;7.55;;;;;;;;;;5044554;28;20022;-69
2022/02/04 14:16:29;;;;;;;34.40;8.10;;;;;;;;;;5044354;28;20163;-70
2022/02/04 14:18:57;;;;;;;32.70;8.68;;;;;;;;;;5043596;28;20025;-69
2022/02/04 14:21:22;;;;;;;36.92;10.27;;;;;;;;;;5042780;28;20030;-69
2022/02/04 14:23:54;;;;;;;28.70;7.15;;;;;;;;;;5042452;28;20032;-69
2022/02/04 14:28:56;;;;;;;13.25;4.28;;;;;;;;;;5043068;28;20682;-69
2022/02/04 14:31:33;;;;;;;30.38;7.47;;;;;;;;;;5044118;28;20029;-69
2022/02/04 15:01:13;;;;;;;19.25;6.65;;;;;;;;;;5042809;28;19913;-69
2022/02/04 15:03:47;;;;;;;20.33;7.55;;;;;;;;;;5025677;28;20056;-69
2022/02/04 15:06:22;;;;;;;35.72;9.82;;;;;;;;;;5024560;28;20079;-69
2022/02/04 15:08:49;;;;;;;30.15;8.45;;;;;;;;;;5024375;28;20564;-69
2022/02/04 15:11:18;;;;;;;41.60;9.90;;;;;;;;;;5042764;28;20380;-69
2022/02/04 15:13:45;;;;;;;47.20;12.52;;;;;;;;;;5043503;28;20179;-69
2022/02/04 15:16:11;;;;;;;39.03;9.13;;;;;;;;;;5043231;28;20125;-69
2022/02/04 15:18:38;;;;;;;21.70;9.52;;;;;;;;;;5043020;28;20030;-69
2022/02/04 15:21:10;;;;;;;60.90;13.85;;;;;;;;;;5042441;28;20025;-69
2022/02/04 15:23:36;;;;;;;57.22;14.20;;;;;;;;;;5043217;28;20033;-68
2022/02/04 15:26:03;;;;;;;54.95;13.88;;;;;;;;;;5024087;28;20068;-68
2022/02/04 15:31:00;;;;;;;62.95;15.23;;;;;;;;;;5042784;28;20041;-69
2022/02/04 15:33:29;;;;;;;77.20;17.40;;;;;;;;;;5042336;28;20061;-69
2022/02/04 15:35:57;;;;;;;64.18;14.98;;;;;;;;;;5024757;28;20045;-69
2022/02/04 15:38:22;;;;;;;66.75;15.25;;;;;;;;;;5042767;28;20037;-69
2022/02/04 15:40:47;;;;;;;70.43;14.32;;;;;;;;;;5042803;28;20045;-69
2022/02/04 15:43:14;;;;;;;54.55;15.48;;;;;;;;;;5042517;28;20029;-68
2022/02/04 15:46:04;;;;;;;69.97;15.63;;;;;;;;;;5024609;28;20136;-70
2022/02/04 15:51:21;;;;;;;63.83;15.55;;;;;;;;;;5043111;28;20253;-70
2022/02/04 15:54:15;;;;;;;61.70;14.80;;;;;;;;;;5042960;28;20026;-69
2022/02/04 16:02:00;;;;;;;56.38;15.02;;;;;;;;;;5042137;28;20037;-70
2022/02/04 16:04:30;;;;;;;70.90;17.03;;;;;;;;;;5042034;28;20040;-70
2022/02/04 16:06:56;;;;;;;77.57;16.80;;;;;;;;;;5043113;28;20032;-70
2022/02/04 16:09:22;;;;;;;77.43;16.65;;;;;;;;;;5043169;28;20026;-69
2022/02/04 16:12:02;;;;;;;72.97;17.55;;;;;;;;;;5042995;28;20022;-70
2022/02/04 16:14:53;;;;;;;70.10;16.48;;;;;;;;;;5042853;28;20060;-70
2022/02/04 16:17:42;;;;;;;81.15;19.20;;;;;;;;;;5041779;28;20033;-69
2022/02/04 16:20:24;;;;;;;66.03;17.63;;;;;;;;;;5041834;28;20029;-70
2022/02/04 16:23:03;;;;;;;74.93;16.58;;;;;;;;;;5043074;28;20034;-69
2022/02/04 16:30:53;;;;;;;75.22;18.58;;;;;;;;;;5043493;28;20056;-69
2022/02/04 16:33:18;;;;;;;86.25;20.05;;;;;;;;;;5025266;28;20499;-69
2022/02/04 16:35:46;;;;;;;90.90;20.38;;;;;;;;;;5045604;28;20052;-70
2022/02/04 16:38:16;;;;;;;81.22;20.08;;;;;;;;;;5045888;28;20049;-70
2022/02/04 16:40:42;;;;;;;40.08;12.27;;;;;;;;;;5045848;28;20029;-70
2022/02/04 16:43:08;;;;;;;73.05;19.65;;;;;;;;;;5046199;28;20029;-69
2022/02/04 16:45:33;;;;;;;79.28;20.65;;;;;;;;;;5045936;28;20052;-70
2022/02/04 16:47:59;;;;;;;77.13;19.17;;;;;;;;;;5045360;28;20561;-70
2022/02/04 16:50:25;;;;;;;73.32;19.95;;;;;;;;;;5045830;28;20031;-71
2022/02/04 16:52:52;;;;;;;72.38;17.75;;;;;;;;;;5046231;28;20211;-70
2022/02/04 16:55:19;;;;;;;84.85;20.85;;;;;;;;;;5027706;28;20034;-69
2022/02/04 16:57:49;;;;;;;74.38;17.35;;;;;;;;;;5045812;28;20037;-70
2022/02/04 17:00:24;;;;;;;60.88;16.73;;;;;;;;;;5045866;28;20041;-69
2022/02/04 17:02:51;;;;;;;73.95;19.48;;;;;;;;;;5027528;28;20033;-70
2022/02/04 17:05:19;;;;;;;68.68;18.73;;;;;;;;;;5045382;28;20167;-70
2022/02/04 17:07:53;;;;;;;62.30;18.50;;;;;;;;;;5045445;28;20033;-70
2022/02/04 17:10:26;;;;;;;67.82;18.00;;;;;;;;;;5045098;28;20461;-70
2022/02/04 17:12:58;;;;;;;68.40;18.23;;;;;;;;;;5027076;28;20033;-70
2022/02/04 17:15:26;;;;;;;67.80;19.00;;;;;;;;;;5045359;28;20121;-70
2022/02/04 17:17:57;;;;;;;53.97;15.60;;;;;;;;;;5045473;28;20033;-70
2022/02/04 17:20:23;;;;;;;63.20;17.73;;;;;;;;;;5045387;28;20036;-70
2022/02/04 17:22:49;;;;;;;47.25;15.57;;;;;;;;;;5045521;28;20039;-70
2022/02/04 17:25:15;;;;;;;54.90;17.95;;;;;;;;;;5045040;28;20060;-70
2022/02/04 17:27:43;;;;;;;56.30;17.02;;;;;;;;;;5045407;28;20400;-70
2022/02/04 17:30:12;;;;;;;48.50;16.80;;;;;;;;;;5045120;28;20035;-70
2022/02/04 17:32:42;;;;;;;62.25;19.23;;;;;;;;;;5044492;28;20111;-69
2022/02/04 17:35:10;;;;;;;54.50;15.30;;;;;;;;;;5026819;28;20052;-70
2022/02/04 17:37:36;;;;;;;51.40;16.10;;;;;;;;;;5044571;28;20044;-69
2022/02/04 17:40:04;;;;;;;50.78;16.70;;;;;;;;;;5026292;28;20084;-69
2022/02/04 17:42:30;;;;;;;52.65;16.23;;;;;;;;;;5044886;28;20036;-69
2022/02/04 17:44:56;;;;;;;55.40;17.85;;;;;;;;;;5044318;28;20025;-70
2022/02/04 17:47:25;;;;;;;40.05;13.18;;;;;;;;;;5042899;28;20033;-70
2022/02/04 17:52:34;;;;;;;50.47;15.35;;;;;;;;;;5043880;28;20040;-70
2022/02/04 17:55:08;;;;;;;49.85;15.75;;;;;;;;;;5025517;28;20037;-70
2022/02/04 18:03:02;;;;;;;58.25;16.80;;;;;;;;;;5044371;28;20041;-69
2022/02/04 18:07:53;;;;;;;47.60;16.15;;;;;;;;;;5044217;28;20033;-69
2022/02/04 18:10:19;;;;;;;59.67;18.52;;;;;;;;;;5025261;28;20076;-70
2022/02/04 18:12:45;;;;;;;60.85;17.77;;;;;;;;;;5043853;28;20035;-70
2022/02/04 18:15:11;;;;;;;69.60;22.95;;;;;;;;;;5043494;28;20033;-71
2022/02/04 18:17:37;;;;;;;40.55;17.63;;;;;;;;;;5041451;28;20041;-70
2022/02/04 18:20:05;;;;;;;69.35;19.42;;;;;;;;;;5041346;28;20057;-70
2022/02/04 18:22:32;;;;;;;52.15;16.17;;;;;;;;;;5041944;28;20022;-70
2022/02/04 18:24:57;;;;;;;70.13;19.75;;;;;;;;;;5041726;28;20037;-70
2022/02/04 18:27:23;;;;;;;67.70;19.67;;;;;;;;;;5041551;28;20033;-70
2022/02/04 18:29:54;;;;;;;67.07;20.30;;;;;;;;;;5041569;28;20030;-70
2022/02/04 18:32:23;;;;;;;44.53;15.38;;;;;;;;;;5041150;28;20025;-72
2022/02/04 18:34:51;;;;;;;41.97;12.57;;;;;;;;;;5040905;28;20033;-69
2022/02/04 18:37:21;;;;;;;71.43;19.77;;;;;;;;;;5041318;28;20034;-70
2022/02/04 18:42:55;;;;;;;77.78;21.08;;;;;;;;;;5042466;28;20180;-70
2022/02/04 18:45:22;;;;;;;58.92;17.05;;;;;;;;;;5041002;28;20772;-69
2022/02/04 18:47:55;;;;;;;70.05;20.15;;;;;;;;;;5024900;28;20052;-70
2022/02/04 18:50:38;;;;;;;46.42;14.85;;;;;;;;;;5042286;28;20087;-70
2022/02/04 18:55:44;;;;;;;65.88;19.38;;;;;;;;;;5041404;28;20057;-70
2022/02/04 18:58:11;;;;;;;69.68;19.52;;;;;;;;;;5040604;28;20037;-70
2022/02/04 19:00:37;;;;;;;52.42;15.93;;;;;;;;;;5041034;28;20029;-70
2022/02/04 19:03:08;;;;;;;60.15;17.42;;;;;;;;;;5041163;28;20033;-70
2022/02/04 19:05:43;;;;;;;38.83;13.15;;;;;;;;;;5023489;28;20040;-70
2022/02/04 19:08:17;;;;;;;66.35;18.05;;;;;;;;;;5040621;28;20021;-70
2022/02/04 19:10:43;;;;;;;62.15;18.13;;;;;;;;;;5040836;28;20025;-69
2022/02/04 19:13:14;;;;;;;58.55;19.33;;;;;;;;;;5022951;28;20064;-69
2022/02/04 19:16:00;;;;;;;58.97;17.95;;;;;;;;;;5025186;28;20029;-69
2022/02/04 19:24:12;;;;;;;55.58;18.55;;;;;;;;;;5036069;28;20060;-70
2022/02/04 19:26:40;;;;;;;56.28;18.08;;;;;;;;;;5040413;28;20409;-71
2022/02/04 19:29:07;;;;;;;36.05;14.30;;;;;;;;;;5040790;28;20037;-69
2022/02/04 19:31:39;;;;;;;39.25;13.45;;;;;;;;;;5022991;28;20033;-70
2022/02/04 19:34:06;;;;;;;55.65;16.08;;;;;;;;;;5040666;28;20469;-71
2022/02/04 19:36:34;;;;;;;48.45;16.05;;;;;;;;;;5040445;28;20481;-70
2022/02/04 19:39:02;;;;;;;46.80;15.55;;;;;;;;;;5022811;28;20034;-70
2022/02/04 19:41:29;;;;;;;45.80;15.30;;;;;;;;;;5041689;28;20437;-70
2022/02/04 19:43:57;;;;;;;41.40;15.32;;;;;;;;;;5040722;28;20492;-69
2022/02/04 19:46:27;;;;;;;23.95;10.07;;;;;;;;;;5042332;28;20107;-70
2022/02/04 19:48:56;;;;;;;42.95;15.07;;;;;;;;;;5022715;28;20030;-70
2022/02/04 19:51:30;;;;;;;36.65;13.23;;;;;;;;;;5042413;28;20025;-70
2022/02/04 19:54:23;;;;;;;19.42;9.27;;;;;;;;;;5023691;28;20030;-70
2022/02/04 20:13:14;;;;;;;33.15;12.60;;;;;;;;;;5040397;28;20071;-71
2022/02/04 20:23:43;;;;;;;32.70;11.90;;;;;;;;;;5046576;28;20059;-70
2022/02/04 20:26:10;;;;;;;29.27;13.00;;;;;;;;;;5045945;28;20040;-71
2022/02/04 20:28:35;;;;;;;26.48;10.50;;;;;;;;;;5046448;28;20039;-70
2022/02/04 20:31:02;;;;;;;34.95;13.80;;;;;;;;;;5028555;28;20029;-71
2022/02/04 20:33:27;;;;;;;27.55;12.15;;;;;;;;;;5028016;28;20646;-71
2022/02/04 20:35:53;;;;;;;35.97;14.40;;;;;;;;;;5017779;28;20065;-71
2022/02/04 20:38:23;;;;;;;33.97;12.20;;;;;;;;;;5025927;28;20034;-71
2022/02/04 20:40:57;;;;;;;32.25;13.50;;;;;;;;;;5026004;28;20053;-71
2022/02/04 20:43:31;;;;;;;27.88;11.07;;;;;;;;;;5025625;28;20032;-72
2022/02/04 20:46:01;;;;;;;31.73;15.43;;;;;;;;;;5025666;28;20044;-72
2022/02/04 20:48:33;;;;;;;31.48;13.73;;;;;;;;;;5024987;28;20041;-72
2022/02/04 20:50:58;;;;;;;34.90;12.57;;;;;;;;;;5041057;28;20037;-71
2022/02/04 20:53:26;;;;;;;47.42;20.17;;;;;;;;;;5024514;28;20100;-71
2022/02/04 20:55:52;;;;;;;25.67;10.57;;;;;;;;;;5025570;28;20052;-71
2022/02/04 20:58:18;;;;;;;32.67;13.40;;;;;;;;;;5025544;28;20030;-70
2022/02/04 21:00:43;;;;;;;29.58;12.80;;;;;;;;;;5025343;28;20034;-71
2022/02/04 21:03:10;;;;;;;30.48;12.10;;;;;;;;;;5025127;28;20034;-71
2022/02/04 21:05:47;;;;;;;26.95;11.38;;;;;;;;;;5025351;28;20056;-71
2022/02/04 21:14:03;;;;;;;34.72;13.73;;;;;;;;;;4964335;29;20059;-71
2022/02/04 21:16:32;;;;;;;24.27;10.63;;;;;;;;;;4963842;28;20035;-70
2022/02/04 21:18:58;;;;;;;30.65;13.05;;;;;;;;;;4994259;28;20053;-72
2022/02/04 21:21:24;;;;;;;19.00;8.85;;;;;;;;;;5025320;28;20025;-72
2022/02/04 21:23:53;;;;;;;29.67;12.75;;;;;;;;;;5024163;28;20042;-71
2022/02/04 21:26:20;;;;;;;29.35;12.60;;;;;;;;;;5025371;28;20029;-72
2022/02/04 21:28:47;;;;;;;32.45;12.82;;;;;;;;;;5023712;28;20025;-72
2022/02/04 21:31:14;;;;;;;34.38;14.05;;;;;;;;;;5025177;28;20485;-72
2022/02/04 21:39:41;;;;;;;21.60;11.20;;;;;;;;;;5012490;28;20250;-73
2022/02/04 21:42:12;;;;;;;23.58;10.77;;;;;;;;;;5024837;28;20029;-73
2022/02/04 21:44:40;;;;;;;15.13;7.72;;;;;;;;;;5023599;28;20076;-72
2022/02/04 21:47:14;;;;;;;21.50;9.23;;;;;;;;;;5024876;28;20041;-72
2022/02/04 21:49:45;;;;;;;15.30;8.05;;;;;;;;;;5023675;28;20537;-73
2022/02/04 21:52:10;;;;;;;21.75;10.52;;;;;;;;;;5024774;28;20038;-73
2022/02/04 21:54:36;;;;;;;30.88;12.27;;;;;;;;;;5025283;28;20033;-72
2022/02/04 21:57:04;;;;;;;21.52;8.70;;;;;;;;;;5024466;28;20103;-72
2022/02/04 21:59:30;;;;;;;24.05;10.23;;;;;;;;;;5024709;28;20104;-72
2022/02/04 22:01:55;;;;;;;23.33;11.40;;;;;;;;;;5023669;28;20458;-72
2022/02/04 22:04:24;;;;;;;21.92;10.05;;;;;;;;;;5024301;28;20056;-72
2022/02/04 22:06:52;;;;;;;6.93;4.35;;;;;;;;;;5023950;28;20426;-72
2022/02/04 22:09:30;;;;;;;24.15;11.32;;;;;;;;;;5022842;28;20036;-72